createdAt,value
2023-12-23T00:01:22.978Z,94126.88
2023-12-23T00:03:50.044Z,94131.94
2023-12-23T00:06:17.204Z,94121.47
2023-12-23T00:08:44.230Z,94122.13
2023-12-23T00:11:11.203Z,94118.50
2023-12-23T00:13:38.242Z,94120.16
2023-12-23T00:16:05.522Z,94131.56
2023-12-23T00:18:32.598Z,94130.63
2023-12-23T00:20:59.886Z,94148.25
2023-12-23T00:23:26.984Z,94132.88
2023-12-23T00:25:54.292Z,94133.16
2023-12-23T00:28:21.294Z,94131.53
2023-12-23T00:30:48.296Z,94141.84
2023-12-23T00:33:15.349Z,94143.47
2023-12-23T00:35:43.096Z,94139.38
2023-12-23T00:38:10.271Z,94169.75
2023-12-23T00:40:37.291Z,94161.25
2023-12-23T00:43:05.938Z,94151.13
2023-12-23T00:45:32.883Z,94170.88
2023-12-23T00:48:00.956Z,94178.88
2023-12-23T00:50:28.918Z,94166.94
2023-12-23T00:52:55.881Z,94163.38
2023-12-23T00:55:22.881Z,94179.25
2023-12-23T00:57:50.388Z,94171.22
2023-12-23T01:00:18.407Z,94183.75
2023-12-23T01:02:45.360Z,94162.72
2023-12-23T01:05:13.010Z,94171.38
2023-12-23T01:07:40.125Z,94172.78
2023-12-23T01:10:07.911Z,94162.97
2023-12-23T01:12:34.865Z,94167.72
2023-12-23T01:15:01.807Z,94181.78
2023-12-23T01:17:29.541Z,94177.22
2023-12-23T01:19:56.533Z,94178.69
2023-12-23T01:22:23.521Z,94190.13
2023-12-23T01:24:50.872Z,94169.16
2023-12-23T01:27:18.386Z,94183.75
2023-12-23T01:29:45.347Z,94188.09
2023-12-23T01:32:32.401Z,94189.78
2023-12-23T01:34:59.442Z,94198.44
2023-12-23T01:37:26.403Z,94223.63
2023-12-23T01:39:53.489Z,94227.38
2023-12-23T01:42:20.430Z,94221.63
2023-12-23T01:44:47.807Z,94235.34
2023-12-23T01:47:15.840Z,94244.63
2023-12-23T01:49:43.803Z,94234.16
2023-12-23T01:52:11.255Z,94257.88
2023-12-23T01:54:38.239Z,94239.59
2023-12-23T01:57:05.594Z,94246.31
2023-12-23T01:59:33.100Z,94247.13
2023-12-23T02:02:00.868Z,94241.38
2023-12-23T02:04:28.036Z,94260.66
2023-12-23T02:06:54.992Z,94249.69
2023-12-23T02:09:22.373Z,94251.63
2023-12-23T02:12:09.268Z,94255.13
2023-12-23T02:14:38.189Z,94264.53
2023-12-23T02:17:05.602Z,94265.03
2023-12-23T02:19:32.601Z,94267.00
2023-12-23T02:21:59.620Z,94279.63
2023-12-23T02:24:28.206Z,94276.16
2023-12-23T02:27:12.777Z,94272.00
2023-12-23T02:29:41.908Z,94286.03
2023-12-23T02:32:11.068Z,94282.97
2023-12-23T02:34:38.698Z,94287.88
2023-12-23T02:37:05.637Z,94293.84
2023-12-23T02:39:32.687Z,94284.97
2023-12-23T02:41:59.764Z,94276.63
2023-12-23T02:44:26.698Z,94277.59
2023-12-23T02:46:53.661Z,94278.94
2023-12-23T02:49:20.583Z,94275.97
2023-12-23T02:51:47.543Z,94278.03
2023-12-23T02:54:14.514Z,94270.88
2023-12-23T02:56:41.521Z,94282.97
2023-12-23T02:59:08.465Z,94269.88
2023-12-23T03:01:35.473Z,94269.78
2023-12-23T03:04:02.512Z,94292.84
2023-12-23T03:06:29.481Z,94288.56
2023-12-23T03:08:56.452Z,94280.06
2023-12-23T03:11:23.434Z,94294.63
2023-12-23T03:13:50.529Z,94290.91
2023-12-23T03:16:19.288Z,94282.53
2023-12-23T03:18:47.237Z,94297.09
2023-12-23T03:21:14.301Z,94274.72
2023-12-23T03:23:41.388Z,94286.88
2023-12-23T03:26:11.592Z,94282.75
2023-12-23T03:28:38.658Z,94291.34
2023-12-23T03:31:05.671Z,94285.63
2023-12-23T03:33:32.628Z,94279.56
2023-12-23T03:36:00.354Z,94278.22
2023-12-23T03:38:28.038Z,94276.94
2023-12-23T03:40:55.419Z,94287.09
2023-12-23T03:43:22.383Z,94291.28
2023-12-23T03:45:49.381Z,94315.75
2023-12-23T03:48:16.497Z,94313.16
2023-12-23T03:50:43.583Z,94301.03
2023-12-23T03:53:10.933Z,94310.88
2023-12-23T03:55:40.533Z,94312.84
2023-12-23T03:58:08.280Z,94296.88
2023-12-23T04:00:35.397Z,94296.66
2023-12-23T04:03:02.487Z,94309.25
2023-12-23T04:05:29.531Z,94281.16
2023-12-23T04:07:56.715Z,94288.44
2023-12-23T04:10:23.964Z,94284.03
2023-12-23T04:12:52.218Z,94308.59
2023-12-23T04:15:19.330Z,94300.22
2023-12-23T04:17:46.988Z,94297.16
2023-12-23T04:20:14.856Z,94288.38
2023-12-23T04:22:46.061Z,94289.50
2023-12-23T04:25:13.194Z,94270.16
2023-12-23T04:27:40.431Z,94271.03
2023-12-23T04:30:09.036Z,94279.56
2023-12-23T04:32:36.286Z,94288.91
2023-12-23T04:35:04.680Z,94262.34
2023-12-23T04:37:31.810Z,94279.81
2023-12-23T04:39:58.836Z,94293.88
2023-12-23T04:42:26.040Z,94270.38
2023-12-23T04:44:53.044Z,94262.53
2023-12-23T04:47:20.208Z,94282.84
2023-12-23T04:49:47.300Z,94279.72
2023-12-23T04:52:14.321Z,94278.22
2023-12-23T04:54:41.328Z,94283.97
2023-12-23T04:57:08.343Z,94294.78
2023-12-23T04:59:35.319Z,94282.84
2023-12-23T05:02:04.105Z,94295.22
2023-12-23T05:04:31.093Z,94274.41
2023-12-23T05:07:00.852Z,94295.22
2023-12-23T05:09:27.816Z,94284.78
2023-12-23T05:11:54.784Z,94290.53
2023-12-23T05:14:21.847Z,94287.75
2023-12-23T05:16:49.271Z,94282.69
2023-12-23T05:19:16.280Z,94279.06
2023-12-23T05:21:45.306Z,94266.97
2023-12-23T05:24:12.329Z,94264.19
2023-12-23T05:26:39.363Z,94272.03
2023-12-23T05:29:06.783Z,94265.53
2023-12-23T05:31:35.563Z,94277.25
2023-12-23T05:34:02.842Z,94281.50
2023-12-23T05:36:29.944Z,94285.09
2023-12-23T05:38:56.908Z,94292.53
2023-12-23T05:41:23.909Z,94282.25
2023-12-23T05:43:50.903Z,94298.97
2023-12-23T05:46:18.048Z,94297.09
2023-12-23T05:48:45.044Z,94287.63
2023-12-23T05:51:12.548Z,94272.03
2023-12-23T05:53:39.490Z,94281.28
2023-12-23T05:56:08.475Z,94274.25
2023-12-23T05:58:35.499Z,94270.97
2023-12-23T06:01:02.600Z,94263.91
2023-12-23T06:03:29.607Z,94261.16
2023-12-23T06:05:56.912Z,94265.91
2023-12-23T06:08:24.093Z,94264.56
2023-12-23T06:10:57.747Z,94273.38
2023-12-23T06:13:27.078Z,94276.94
2023-12-23T06:15:54.218Z,94284.34
2023-12-23T06:18:21.546Z,94281.28
2023-12-23T06:20:48.619Z,94290.78
2023-12-23T06:23:15.706Z,94298.59
2023-12-23T06:25:42.817Z,94273.00
2023-12-23T06:28:09.913Z,94271.50
2023-12-23T06:30:37.053Z,94277.53
2023-12-23T06:33:04.484Z,94294.19
2023-12-23T06:35:31.777Z,94284.03
2023-12-23T06:37:58.950Z,94281.56
2023-12-23T06:40:26.098Z,94269.34
2023-12-23T06:42:53.283Z,94281.56
2023-12-23T06:45:20.459Z,94270.31
2023-12-23T06:47:47.652Z,94261.00
2023-12-23T06:50:15.012Z,94261.47
2023-12-23T06:52:42.833Z,94259.34
2023-12-23T06:55:09.876Z,94264.28
2023-12-23T06:57:38.715Z,94256.72
2023-12-23T07:00:08.546Z,94268.69
2023-12-23T07:02:35.861Z,94252.72
2023-12-23T07:05:03.007Z,94255.47
2023-12-23T07:07:30.083Z,94265.91
2023-12-23T07:10:04.553Z,94276.81
2023-12-23T07:12:34.607Z,94268.69
2023-12-23T07:15:04.544Z,94269.34
2023-12-23T07:17:38.644Z,94268.69
2023-12-23T07:20:10.771Z,94264.75
2023-12-23T07:22:37.943Z,94275.25
2023-12-23T07:25:06.496Z,94280.75
2023-12-23T07:27:33.726Z,94266.56
2023-12-23T07:30:00.830Z,94285.03
2023-12-23T07:32:28.020Z,94269.50
2023-12-23T07:34:55.193Z,94267.56
2023-12-23T07:37:22.305Z,94268.09
2023-12-23T07:39:49.343Z,94271.50
2023-12-23T07:42:16.589Z,94268.91
2023-12-23T07:44:43.621Z,94278.88
2023-12-23T07:47:14.131Z,94281.00
2023-12-23T07:49:41.275Z,94271.22
2023-12-23T07:52:11.134Z,94279.19
2023-12-23T07:54:38.199Z,94286.22
2023-12-23T07:57:05.768Z,94269.09
2023-12-23T07:59:32.876Z,94274.03
2023-12-23T08:02:00.516Z,94273.22
2023-12-23T08:04:27.644Z,94280.59
2023-12-23T08:06:54.737Z,94285.16
2023-12-23T08:09:22.231Z,94290.22
2023-12-23T08:11:49.295Z,94290.75
2023-12-23T08:14:16.351Z,94287.00
2023-12-23T08:16:44.157Z,94297.31
2023-12-23T08:19:11.194Z,94280.41
2023-12-23T08:21:38.122Z,94314.41
2023-12-23T08:24:05.591Z,94297.59
2023-12-23T08:26:32.616Z,94289.38
2023-12-23T08:28:59.727Z,94313.00
2023-12-23T08:31:26.973Z,94305.06
2023-12-23T08:33:54.097Z,94322.84
2023-12-23T08:36:21.117Z,94322.00
2023-12-23T08:38:48.142Z,94319.72
2023-12-23T08:41:15.215Z,94325.88
2023-12-23T08:43:42.416Z,94327.09
2023-12-23T08:46:09.862Z,94327.63
2023-12-23T08:48:38.868Z,94328.94
2023-12-23T08:51:05.987Z,94325.06
2023-12-23T08:53:33.021Z,94325.06
2023-12-23T08:56:00.111Z,94326.06
2023-12-23T08:58:27.257Z,94310.22
2023-12-23T09:00:54.401Z,94344.63
2023-12-23T09:03:21.616Z,94341.34
2023-12-23T09:05:48.798Z,94326.56
2023-12-23T09:08:16.487Z,94321.03
2023-12-23T09:10:43.609Z,94321.44
2023-12-23T09:13:10.720Z,94310.88
2023-12-23T09:15:39.327Z,94328.44
2023-12-23T09:18:07.091Z,94325.88
2023-12-23T09:20:34.653Z,94319.91
2023-12-23T09:23:02.005Z,94329.69
2023-12-23T09:25:29.312Z,94340.00
2023-12-23T09:27:56.542Z,94318.72
2023-12-23T09:30:23.831Z,94351.50
2023-12-23T09:32:51.400Z,94337.47
2023-12-23T09:35:18.761Z,94341.34
2023-12-23T09:37:46.885Z,94328.44
2023-12-23T09:40:14.998Z,94331.19
2023-12-23T09:42:42.839Z,94333.50
2023-12-23T09:45:15.271Z,94352.00
2023-12-23T09:47:44.087Z,94360.28
2023-12-23T09:50:11.708Z,94351.19
2023-12-23T09:52:39.114Z,94363.22
2023-12-23T09:55:11.035Z,94366.34
2023-12-23T09:57:38.719Z,94347.97
2023-12-23T10:00:07.029Z,94335.00
2023-12-23T10:02:41.276Z,94368.81
2023-12-23T10:05:09.384Z,94361.72
2023-12-23T10:07:36.553Z,94345.69
2023-12-23T10:10:05.136Z,94329.34
2023-12-23T10:12:32.278Z,94341.19
2023-12-23T10:14:59.408Z,94340.94
2023-12-23T10:17:26.620Z,94334.38
2023-12-23T10:19:56.616Z,94343.50
2023-12-23T10:22:27.873Z,94347.91
2023-12-23T10:24:56.099Z,94344.94
2023-12-23T10:27:26.417Z,94348.50
2023-12-23T10:29:58.077Z,94330.91
2023-12-23T10:32:26.538Z,94336.19
2023-12-23T10:35:01.707Z,94322.91
2023-12-23T10:37:30.199Z,94325.06
2023-12-23T10:40:04.452Z,94315.75
2023-12-23T10:42:32.802Z,94313.00
2023-12-23T10:45:00.822Z,94313.47
2023-12-23T10:47:30.743Z,94319.84
2023-12-23T10:49:58.252Z,94318.72
2023-12-23T10:52:26.413Z,94313.00
2023-12-23T10:54:54.002Z,94318.22
2023-12-23T10:57:25.424Z,94322.00
2023-12-23T10:59:52.628Z,94322.50
2023-12-23T11:02:33.332Z,94294.09
2023-12-23T11:05:04.989Z,94260.22
2023-12-23T11:07:47.368Z,94308.22
2023-12-23T11:10:17.519Z,94308.31
2023-12-23T11:12:45.001Z,94307.19
2023-12-23T11:15:12.424Z,94277.19
2023-12-23T11:17:47.114Z,94280.00
2023-12-23T11:20:49.192Z,94300.09
2023-12-23T11:23:31.425Z,94290.84
2023-12-23T11:25:59.364Z,94279.16
2023-12-23T11:28:28.398Z,94268.47
2023-12-23T11:30:58.204Z,94275.31
2023-12-23T11:33:36.718Z,94279.56
2023-12-23T11:36:04.733Z,94279.91
2023-12-23T11:38:53.274Z,94268.03
2023-12-23T11:41:22.932Z,94255.16
2023-12-23T11:43:51.625Z,94266.59
2023-12-23T11:46:23.634Z,94269.06
2023-12-23T11:48:50.854Z,94269.53
2023-12-23T11:51:18.301Z,94268.75
2023-12-23T11:53:45.572Z,94285.47
2023-12-23T11:56:12.805Z,94306.03
2023-12-23T11:58:40.637Z,94276.47
2023-12-23T12:01:07.772Z,94274.16
2023-12-23T12:03:34.855Z,94285.59
2023-12-23T12:06:03.836Z,94293.63
2023-12-23T12:08:31.163Z,94269.63
2023-12-23T12:11:02.304Z,94301.00
2023-12-23T12:13:32.267Z,94292.94
2023-12-23T12:15:59.558Z,94313.75
2023-12-23T12:18:26.669Z,94300.66
2023-12-23T12:20:53.822Z,94308.69
2023-12-23T12:23:21.440Z,94326.84
2023-12-23T12:25:52.578Z,94298.41
2023-12-23T12:28:20.044Z,94322.66
2023-12-23T12:30:48.333Z,94301.41
2023-12-23T12:33:18.358Z,94313.00
2023-12-23T12:35:46.210Z,94312.72
2023-12-23T12:38:20.141Z,94322.00
2023-12-23T12:40:51.496Z,94327.56
2023-12-23T12:43:18.824Z,94329.22
2023-12-23T12:45:49.672Z,94325.31
2023-12-23T12:48:17.567Z,94314.66
2023-12-23T12:50:45.205Z,94316.28
2023-12-23T12:53:17.202Z,94323.19
2023-12-23T12:55:44.556Z,94313.53
2023-12-23T12:58:11.860Z,94311.84
2023-12-23T13:00:38.921Z,94318.06
2023-12-23T13:03:06.514Z,94317.22
2023-12-23T13:05:33.677Z,94321.78
2023-12-23T13:08:00.944Z,94335.31
2023-12-23T13:10:28.043Z,94327.94
2023-12-23T13:12:55.297Z,94335.69
2023-12-23T13:15:22.290Z,94340.56
2023-12-23T13:17:49.419Z,94332.09
2023-12-23T13:20:16.814Z,94337.47
2023-12-23T13:22:48.303Z,94347.78
2023-12-23T13:25:15.856Z,94362.81
2023-12-23T13:27:43.080Z,94356.91
2023-12-23T13:30:11.664Z,94339.38
2023-12-23T13:32:38.978Z,94364.13
2023-12-23T13:35:06.544Z,94358.81
2023-12-23T13:37:33.790Z,94353.72
2023-12-23T13:40:01.183Z,94385.00
2023-12-23T13:42:28.274Z,94379.63
2023-12-23T13:44:55.471Z,94384.19
2023-12-23T13:47:22.834Z,94350.53
2023-12-23T13:49:50.183Z,94344.34
2023-12-23T13:52:18.965Z,94377.47
2023-12-23T13:54:46.388Z,94365.47
2023-12-23T13:57:13.573Z,94364.31
2023-12-23T13:59:40.744Z,94339.06
2023-12-23T14:02:09.350Z,94338.97
2023-12-23T14:04:38.323Z,94364.34
2023-12-23T14:07:05.595Z,94374.81
2023-12-23T14:09:34.529Z,94350.03
2023-12-23T14:12:01.861Z,94362.81
2023-12-23T14:14:28.984Z,94369.69
2023-12-23T14:16:56.215Z,94370.38
2023-12-23T14:19:23.712Z,94399.31
2023-12-23T14:21:51.031Z,94354.84
2023-12-23T14:24:18.169Z,94369.44
2023-12-23T14:26:46.405Z,94368.34
2023-12-23T14:29:13.720Z,94373.81
2023-12-23T14:31:41.043Z,94377.44
2023-12-23T14:34:08.132Z,94364.31
2023-12-23T14:36:35.270Z,94364.63
2023-12-23T14:39:03.866Z,94384.47
2023-12-23T14:41:31.331Z,94375.09
2023-12-23T14:43:58.552Z,94384.63
2023-12-23T14:46:25.882Z,94401.94
2023-12-23T14:48:52.984Z,94381.34
2023-12-23T14:51:21.818Z,94405.09
2023-12-23T14:53:48.906Z,94399.94
2023-12-23T14:56:16.125Z,94411.06
2023-12-23T14:58:43.204Z,94412.94
2023-12-23T15:01:10.517Z,94402.09
2023-12-23T15:03:37.750Z,94420.97
2023-12-23T15:06:05.300Z,94410.81
2023-12-23T15:08:32.522Z,94414.34
2023-12-23T15:10:59.765Z,94413.00
2023-12-23T15:13:27.522Z,94429.72
2023-12-23T15:15:54.683Z,94416.03
2023-12-23T15:18:22.165Z,94424.47
2023-12-23T15:20:49.422Z,94426.41
2023-12-23T15:23:16.675Z,94420.38
2023-12-23T15:25:43.900Z,94433.91
2023-12-23T15:28:11.100Z,94438.06
2023-12-23T15:30:38.190Z,94426.41
2023-12-23T15:33:05.644Z,94450.16
2023-12-23T15:35:32.980Z,94450.91
2023-12-23T15:38:00.911Z,94434.50
2023-12-23T15:40:28.303Z,94456.50
2023-12-23T15:42:55.484Z,94436.66
2023-12-23T15:45:22.558Z,94453.31
2023-12-23T15:47:49.977Z,94434.50
2023-12-23T15:50:17.325Z,94444.44
2023-12-23T15:52:44.392Z,94463.84
2023-12-23T15:55:12.024Z,94466.97
2023-12-23T15:57:39.167Z,94456.75
2023-12-23T16:00:07.682Z,94460.03
2023-12-23T16:02:39.621Z,94458.59
2023-12-23T16:05:07.235Z,94465.75
2023-12-23T16:07:34.330Z,94480.97
2023-12-23T16:10:01.424Z,94488.38
2023-12-23T16:12:28.578Z,94470.00
2023-12-23T16:14:56.096Z,94477.25
2023-12-23T16:17:24.355Z,94475.75
2023-12-23T16:19:51.608Z,94466.56
2023-12-23T16:22:18.721Z,94481.56
2023-12-23T16:24:46.050Z,94467.31
2023-12-23T16:27:13.169Z,94485.97
2023-12-23T16:29:43.533Z,94482.28
2023-12-23T16:32:10.777Z,94473.34
2023-12-23T16:34:37.944Z,94472.03
2023-12-23T16:37:05.424Z,94466.28
2023-12-23T16:39:32.521Z,94471.09
2023-12-23T16:41:59.577Z,94468.09
2023-12-23T16:44:26.860Z,94480.31
2023-12-23T16:46:54.086Z,94488.97
2023-12-23T16:49:23.244Z,94491.44
2023-12-23T16:51:50.321Z,94507.78
2023-12-23T16:54:17.392Z,94486.94
2023-12-23T16:56:44.559Z,94490.84
2023-12-23T16:59:11.635Z,94480.84
2023-12-23T17:01:38.717Z,94500.63
2023-12-23T17:04:05.772Z,94502.50
2023-12-23T17:06:32.824Z,94503.09
2023-12-23T17:08:59.873Z,94514.50
2023-12-23T17:11:27.056Z,94505.72
2023-12-23T17:13:54.197Z,94522.78
2023-12-23T17:16:21.241Z,94528.41
2023-12-23T17:18:48.409Z,94529.88
2023-12-23T17:21:15.579Z,94528.91
2023-12-23T17:23:42.594Z,94530.69
2023-12-23T17:26:09.719Z,94535.94
2023-12-23T17:28:36.779Z,94539.94
2023-12-23T17:31:04.004Z,94538.31
2023-12-23T17:33:31.206Z,94545.69
2023-12-23T17:35:58.309Z,94543.53
2023-12-23T17:38:25.607Z,94547.63
2023-12-23T17:40:52.692Z,94543.50
2023-12-23T17:43:19.952Z,94548.72
2023-12-23T17:45:46.960Z,94541.69
2023-12-23T17:48:17.427Z,94537.84
2023-12-23T17:50:44.677Z,94533.84
2023-12-23T17:53:11.722Z,94541.28
2023-12-23T17:55:38.906Z,94534.97
2023-12-23T17:58:05.957Z,94537.31
2023-12-23T18:00:33.082Z,94535.59
2023-12-23T18:03:00.195Z,94557.25
2023-12-23T18:05:27.442Z,94550.38
2023-12-23T18:07:56.651Z,94541.88
2023-12-23T18:10:23.976Z,94556.28
2023-12-23T18:12:51.368Z,94556.00
2023-12-23T18:15:18.644Z,94556.13
2023-12-23T18:17:46.061Z,94563.53
2023-12-23T18:20:13.296Z,94567.66
2023-12-23T18:22:40.357Z,94579.31
2023-12-23T18:25:07.758Z,94579.31
2023-12-23T18:27:34.767Z,94582.75
2023-12-23T18:30:01.769Z,94574.09
2023-12-23T18:32:29.281Z,94582.63
2023-12-23T18:34:56.490Z,94570.84
2023-12-23T18:37:23.609Z,94587.13
2023-12-23T18:39:50.631Z,94592.91
2023-12-23T18:42:17.783Z,94574.94
2023-12-23T18:44:44.958Z,94580.28
2023-12-23T18:47:12.019Z,94577.41
2023-12-23T18:49:39.105Z,94578.09
2023-12-23T18:52:06.462Z,94578.44
2023-12-23T18:54:33.469Z,94576.81
2023-12-23T18:57:01.743Z,94586.59
2023-12-23T18:59:29.994Z,94582.06
2023-12-23T19:01:57.139Z,94583.00
2023-12-23T19:04:24.230Z,94594.94
2023-12-23T19:06:51.234Z,94583.72
2023-12-23T19:09:18.257Z,94588.53
2023-12-23T19:11:45.536Z,94592.38
2023-12-23T19:14:12.601Z,94586.06
2023-12-23T19:16:39.660Z,94584.84
2023-12-23T19:19:06.762Z,94578.78
2023-12-23T19:21:48.968Z,94585.38
2023-12-23T19:24:16.131Z,94588.22
2023-12-23T19:26:43.377Z,94597.59
2023-12-23T19:29:10.457Z,94588.00
2023-12-23T19:31:41.302Z,94597.19
2023-12-23T19:34:10.304Z,94590.97
2023-12-23T19:36:37.499Z,94591.50
2023-12-23T19:39:04.728Z,94591.50
2023-12-23T19:41:31.928Z,94576.69
2023-12-23T19:43:59.077Z,94597.03
2023-12-23T19:46:26.280Z,94595.09
2023-12-23T19:48:53.481Z,94596.19
2023-12-23T19:51:20.588Z,94592.72
2023-12-23T19:53:47.641Z,94589.31
2023-12-23T19:56:14.849Z,94579.28
2023-12-23T19:58:42.421Z,94585.34
2023-12-23T20:01:10.042Z,94571.59
2023-12-23T20:03:41.454Z,94575.56
2023-12-23T20:06:12.484Z,94581.16
2023-12-23T20:08:40.317Z,94568.41
2023-12-23T20:11:07.429Z,94567.28
2023-12-23T20:13:35.554Z,94563.41
2023-12-23T20:16:03.336Z,94566.16
2023-12-23T20:18:30.606Z,94546.81
2023-12-23T20:20:57.745Z,94566.06
2023-12-23T20:23:24.918Z,94573.63
2023-12-23T20:25:52.045Z,94562.91
2023-12-23T20:28:19.104Z,94555.53
2023-12-23T20:30:46.206Z,94575.84
2023-12-23T20:33:15.082Z,94572.94
2023-12-23T20:35:42.205Z,94564.00
2023-12-23T20:38:09.485Z,94559.34
2023-12-23T20:40:36.699Z,94572.84
2023-12-23T20:43:03.793Z,94575.84
2023-12-23T20:45:30.910Z,94575.84
2023-12-23T20:47:57.971Z,94573.09
2023-12-23T20:50:25.128Z,94563.63
2023-12-23T20:52:52.823Z,94578.19
2023-12-23T20:55:21.406Z,94571.69
2023-12-23T20:57:48.484Z,94577.88
2023-12-23T21:00:18.959Z,94573.63
2023-12-23T21:02:46.209Z,94571.75
2023-12-23T21:05:13.589Z,94577.59
2023-12-23T21:07:41.675Z,94572.22
2023-12-23T21:10:09.317Z,94576.34
2023-12-23T21:12:36.662Z,94581.84
2023-12-23T21:15:04.641Z,94569.44
2023-12-23T21:17:31.796Z,94564.91
2023-12-23T21:19:58.891Z,94560.34
2023-12-23T21:22:26.012Z,94555.88
2023-12-23T21:24:54.435Z,94564.66
2023-12-23T21:27:21.814Z,94565.34
2023-12-23T21:29:49.141Z,94556.56
2023-12-23T21:32:16.300Z,94554.44
2023-12-23T21:34:44.002Z,94550.34
2023-12-23T21:37:11.108Z,94557.59
2023-12-23T21:39:38.170Z,94559.50
2023-12-23T21:42:05.572Z,94523.69
2023-12-23T21:44:35.235Z,94555.66
2023-12-23T21:47:02.286Z,94555.81
2023-12-23T21:49:29.384Z,94542.22
2023-12-23T21:51:56.648Z,94553.78
2023-12-23T21:54:23.675Z,94563.63
2023-12-23T21:56:50.757Z,94563.22
2023-12-23T21:59:17.989Z,94566.38
2023-12-23T22:01:45.025Z,94549.03
2023-12-23T22:04:12.063Z,94560.84
2023-12-23T22:06:40.107Z,94564.72
2023-12-23T22:09:07.176Z,94559.75
2023-12-23T22:11:34.382Z,94550.03
2023-12-23T22:14:01.858Z,94551.09
2023-12-23T22:16:28.925Z,94551.50
2023-12-23T22:18:56.364Z,94566.06
2023-12-23T22:21:23.463Z,94566.22
2023-12-23T22:23:50.634Z,94568.81
2023-12-23T22:26:18.568Z,94552.63
2023-12-23T22:28:45.583Z,94569.81
2023-12-23T22:31:12.584Z,94563.09
2023-12-23T22:33:39.736Z,94552.63
2023-12-23T22:36:10.120Z,94569.66
2023-12-23T22:38:37.281Z,94566.94
2023-12-23T22:41:06.090Z,94570.38
2023-12-23T22:43:33.595Z,94565.00
2023-12-23T22:46:00.642Z,94568.59
2023-12-23T22:48:27.752Z,94562.25
2023-12-23T22:50:54.946Z,94537.97
2023-12-23T22:53:22.059Z,94565.69
2023-12-23T22:55:49.284Z,94558.53
2023-12-23T22:58:16.331Z,94562.97
2023-12-23T23:00:44.610Z,94555.97
2023-12-23T23:03:11.723Z,94558.06
2023-12-23T23:05:39.172Z,94559.69
2023-12-23T23:08:07.456Z,94551.16
2023-12-23T23:10:34.894Z,94561.25
2023-12-23T23:13:02.001Z,94563.19
2023-12-23T23:15:29.044Z,94570.03
2023-12-23T23:17:56.383Z,94563.72
2023-12-23T23:20:23.529Z,94568.25
2023-12-23T23:22:50.796Z,94554.63
2023-12-23T23:25:18.126Z,94563.13
2023-12-23T23:27:45.192Z,94567.50
2023-12-23T23:30:12.667Z,94573.72
2023-12-23T23:32:39.963Z,94582.59
2023-12-23T23:35:11.608Z,94580.16
2023-12-23T23:37:39.593Z,94579.03
2023-12-23T23:40:07.675Z,94576.28
2023-12-23T23:42:34.711Z,94559.09
2023-12-23T23:45:01.824Z,94569.25
2023-12-23T23:47:29.175Z,94570.75
2023-12-23T23:49:56.502Z,94572.69
2023-12-23T23:52:23.691Z,94565.53
2023-12-23T23:54:50.772Z,94564.19
2023-12-23T23:57:18.027Z,94573.81
2023-12-23T23:59:45.541Z,94561.16
